1899 NOT_NAMED (1899009S11067)


IBTrACS version v04r00. Visit IBTrACS website for data access.
Please direct all questions to the IBTrACS Q and A forum

Storm track - Intensity - Wind Radii - Intensity Data - Source Data - All data

Summary Information

Storm ID 1899009S11067
Start Jan 9 00Z
End Jan 18 00Z
ATCF IDs
Track status Best track data.

Storm track plot

Map of storm track

Intensity plots

No Intensity information for this storm


Radial wind information

No radial wind information for this storm


Position and Intensity Table

BASIN ISO_TIME_________ NATURE LAT LON
degrees north degrees east
SI 1899-01-09 00:00:00 TS -10.70 66.60
SI 03:00:00 TS -10.85 66.51
SI 06:00:00 TS -11.00 66.40
SI 09:00:00 TS -11.16 66.26
SI 12:00:00 TS -11.30 66.10
SI 15:00:00 TS -11.40 65.94
SI 18:00:00 TS -11.50 65.80
SI 21:00:00 TS -11.65 65.69
SI 1899-01-10 00:00:00 TS -11.80 65.60
SI 03:00:00 TS -11.90 65.50
SI 06:00:00 TS -12.00 65.40
SI 09:00:00 TS -12.14 65.30
SI 12:00:00 TS -12.30 65.20
SI 15:00:00 TS -12.45 65.10
SI 18:00:00 TS -12.60 65.00
SI 21:00:00 TS -12.75 64.91
SI 1899-01-11 00:00:00 TS -12.90 64.80
SI 03:00:00 TS -13.05 64.66
SI 06:00:00 TS -13.20 64.50
SI 09:00:00 TS -13.35 64.34
SI 12:00:00 TS -13.50 64.20
SI 15:00:00 TS -13.66 64.09
SI 18:00:00 TS -13.80 64.00
SI 21:00:00 TS -13.90 63.91
SI 1899-01-12 00:00:00 TS -14.00 63.80
SI 03:00:00 TS -14.14 63.61
SI 06:00:00 TS -14.30 63.40
SI 09:00:00 TS -14.50 63.24
SI 12:00:00 TS -14.70 63.10
SI 15:00:00 TS -14.86 62.94
SI 18:00:00 TS -15.00 62.80
SI 21:00:00 TS -15.15 62.70
SI 1899-01-13 00:00:00 TS -15.30 62.60
SI 03:00:00 TS -15.44 62.46
SI 06:00:00 TS -15.60 62.30
SI 09:00:00 TS -15.81 62.14
SI 12:00:00 TS -16.00 62.00
SI 15:00:00 TS -16.11 61.88
SI 18:00:00 TS -16.20 61.80
SI 21:00:00 TS -16.34 61.76
SI 1899-01-14 00:00:00 TS -16.50 61.70
SI 03:00:00 TS -16.65 61.57
SI 06:00:00 TS -16.80 61.40
SI 09:00:00 TS -16.94 61.24
SI 12:00:00 TS -17.10 61.10
SI 15:00:00 TS -17.29 60.99
SI 18:00:00 TS -17.50 60.90
SI 21:00:00 TS -17.71 60.84
SI 1899-01-15 00:00:00 TS -17.90 60.80
SI 03:00:00 TS -18.06 60.75
SI 06:00:00 TS -18.20 60.70
SI 09:00:00 TS -18.35 60.64
SI 12:00:00 TS -18.50 60.60
SI 15:00:00 TS -18.64 60.59
SI 18:00:00 TS -18.80 60.60
SI 21:00:00 TS -18.99 60.60
SI 1899-01-16 00:00:00 TS -19.20 60.60
SI 03:00:00 TS -19.44 60.59
SI 06:00:00 TS -19.70 60.60
SI 09:00:00 TS -19.96 60.64
SI 12:00:00 TS -20.20 60.70
SI 15:00:00 TS -20.41 60.74
SI 18:00:00 TS -20.60 60.80
SI 21:00:00 TS -20.73 60.84
SI 1899-01-17 00:00:00 TS -21.00 61.00
SI 03:00:00 TS -21.59 61.38
SI 06:00:00 TS -22.30 61.90
SI 09:00:00 TS -22.93 62.44
SI 12:00:00 TS -23.50 63.00
SI 15:00:00 TS -23.99 63.50
SI 18:00:00 TS -24.40 64.00
SI 21:00:00 TS -24.76 64.54
SI 1899-01-18 00:00:00 TS -25.10 65.10

Source Information

Agency Information
USA
TOKYO
CMA
HKO
NEWDELHI
REUNION
BOM
NADI
WELLINGTON
DS824 s_hem.dat:101:NOT NAMED
TD9636
TD9635
NEUMANN
MLC

All available IBTrACS Data

SEASON BASIN SUBBASIN ISO_TIME_________ NATURE LAT LON DIST2LAND LANDFALL IFLAG USA SSHS DS824 LAT DS824 LON DS824 STAGE STORM SPEED STORM DIR
Year degrees north degrees east km km 1 degrees north degrees east kts degrees
1899 SI MM 1899-01-09 00:00:00 TS -10.70 66.60 1419 1404 _________O____ -1 -10.70 66.60 TC 3 211
1899 SI MM 03:00:00 TS -10.85 66.51 1404 1379 _________P____ -1 -10.85 66.51 TC 4 213
1899 SI MM 06:00:00 TS -11.00 66.40 1379 1364 _________O____ -1 -11.00 66.40 TC 4 218
1899 SI MM 09:00:00 TS -11.16 66.26 1355 1333 _________P____ -1 -11.16 66.26 TC 4 224
1899 SI MM 12:00:00 TS -11.30 66.10 1333 1317 _________O____ -1 -11.30 66.10 TC 4 232
1899 SI MM 15:00:00 TS -11.40 65.94 1310 1294 _________P____ -1 -11.40 65.94 TC 4 236
1899 SI MM 18:00:00 TS -11.50 65.80 1294 1279 _________O____ -1 -11.50 65.80 TC 4 224
1899 SI MM 21:00:00 TS -11.65 65.69 1279 1255 _________P____ -1 -11.65 65.69 TC 4 213
1899 SI MM 1899-01-10 00:00:00 TS -11.80 65.60 1255 1239 _________O____ -1 -11.80 65.60 TC 3 217
1899 SI MM 03:00:00 TS -11.90 65.50 1239 1223 _________P____ -1 -11.90 65.50 TC 3 224
1899 SI MM 06:00:00 TS -12.00 65.40 1223 1208 _________O____ -1 -12.00 65.40 TC 3 219
1899 SI MM 09:00:00 TS -12.14 65.30 1208 1184 _________P____ -1 -12.14 65.30 TC 4 213
1899 SI MM 12:00:00 TS -12.30 65.20 1184 1168 _________O____ -1 -12.30 65.20 TC 4 212
1899 SI MM 15:00:00 TS -12.45 65.10 1168 1144 _________P____ -1 -12.45 65.10 TC 4 213
1899 SI MM 18:00:00 TS -12.60 65.00 1144 1129 _________O____ -1 -12.60 65.00 TC 4 212
1899 SI MM 21:00:00 TS -12.75 64.91 1129 1105 _________P____ -1 -12.75 64.91 TC 4 213
1899 SI MM 1899-01-11 00:00:00 TS -12.90 64.80 1105 1089 _________O____ -1 -12.90 64.80 TC 4 219
1899 SI MM 03:00:00 TS -13.05 64.66 1089 1058 _________P____ -1 -13.05 64.66 TC 4 224
1899 SI MM 06:00:00 TS -13.20 64.50 1058 1042 _________O____ -1 -13.20 64.50 TC 4 225
1899 SI MM 09:00:00 TS -13.35 64.34 1027 1011 _________P____ -1 -13.35 64.34 TC 4 224
1899 SI MM 12:00:00 TS -13.50 64.20 1011 996 _________O____ -1 -13.50 64.20 TC 4 218
1899 SI MM 15:00:00 TS -13.66 64.09 988 972 _________P____ -1 -13.66 64.09 TC 4 213
1899 SI MM 18:00:00 TS -13.80 64.00 972 956 _________O____ -1 -13.80 64.00 TC 3 216
1899 SI MM 21:00:00 TS -13.90 63.91 956 941 _________P____ -1 -13.90 63.91 TC 3 224
1899 SI MM 1899-01-12 00:00:00 TS -14.00 63.80 941 918 _________O____ -1 -14.00 63.80 TC 4 232
1899 SI MM 03:00:00 TS -14.14 63.61 918 887 _________P____ -1 -14.14 63.61 TC 5 232
1899 SI MM 06:00:00 TS -14.30 63.40 887 863 _________O____ -1 -14.30 63.40 TC 5 224
1899 SI MM 09:00:00 TS -14.50 63.24 856 832 _________P____ -1 -14.50 63.24 TC 5 216
1899 SI MM 12:00:00 TS -14.70 63.10 832 817 _________O____ -1 -14.70 63.10 TC 5 219
1899 SI MM 15:00:00 TS -14.86 62.94 801 786 _________P____ -1 -14.86 62.94 TC 4 224
1899 SI MM 18:00:00 TS -15.00 62.80 786 770 _________O____ -1 -15.00 62.80 TC 4 219
1899 SI MM 21:00:00 TS -15.15 62.70 770 746 _________P____ -1 -15.15 62.70 TC 4 213
1899 SI MM 1899-01-13 00:00:00 TS -15.30 62.60 746 731 _________O____ -1 -15.30 62.60 TC 4 219
1899 SI MM 03:00:00 TS -15.44 62.46 731 700 _________P____ -1 -15.44 62.46 TC 4 224
1899 SI MM 06:00:00 TS -15.60 62.30 700 676 _________O____ -1 -15.60 62.30 TC 5 220
1899 SI MM 09:00:00 TS -15.81 62.14 669 645 _________P____ -1 -15.81 62.14 TC 5 216
1899 SI MM 12:00:00 TS -16.00 62.00 645 630 _________O____ -1 -16.00 62.00 TC 4 219
1899 SI MM 15:00:00 TS -16.11 61.88 630 614 _________P____ -1 -16.11 61.88 TC 3 224
1899 SI MM 18:00:00 TS -16.20 61.80 614 606 _________O____ -1 -16.20 61.80 TC 3 208
1899 SI MM 21:00:00 TS -16.34 61.76 606 583 _________P____ -1 -16.34 61.76 TC 3 197
1899 SI MM 1899-01-14 00:00:00 TS -16.50 61.70 583 568 _________O____ -1 -16.50 61.70 TC 4 211
1899 SI MM 03:00:00 TS -16.65 61.57 560 537 _________P____ -1 -16.65 61.57 TC 4 224
1899 SI MM 06:00:00 TS -16.80 61.40 537 521 _________O____ -1 -16.80 61.40 TC 4 227
1899 SI MM 09:00:00 TS -16.94 61.24 514 490 _________P____ -1 -16.94 61.24 TC 4 224
1899 SI MM 12:00:00 TS -17.10 61.10 490 467 _________O____ -1 -17.10 61.10 TC 4 215
1899 SI MM 15:00:00 TS -17.29 60.99 467 445 _________P____ -1 -17.29 60.99 TC 4 205
1899 SI MM 18:00:00 TS -17.50 60.90 445 422 _________O____ -1 -17.50 60.90 TC 4 198
1899 SI MM 21:00:00 TS -17.71 60.84 422 408 _________P____ -1 -17.71 60.84 TC 4 193
1899 SI MM 1899-01-15 00:00:00 TS -17.90 60.80 408 401 _________O____ -1 -17.90 60.80 TC 4 194
1899 SI MM 03:00:00 TS -18.06 60.75 386 380 _________P____ -1 -18.06 60.75 TC 3 197
1899 SI MM 06:00:00 TS -18.20 60.70 380 365 _________O____ -1 -18.20 60.70 TC 3 200
1899 SI MM 09:00:00 TS -18.35 60.64 358 353 _________P____ -1 -18.35 60.64 TC 3 197
1899 SI MM 12:00:00 TS -18.50 60.60 353 347 _________O____ -1 -18.50 60.60 TC 3 189
1899 SI MM 15:00:00 TS -18.64 60.59 347 337 _________P____ -1 -18.64 60.59 TC 3 0
1899 SI MM 18:00:00 TS -18.80 60.60 337 327 _________O____ -1 -18.80 60.60 TC 3 178
1899 SI MM 21:00:00 TS -18.99 60.60 327 317 _________P____ -1 -18.99 60.60 TC 4 0
1899 SI MM 1899-01-16 00:00:00 TS -19.20 60.60 317 309 _________O____ -1 -19.20 60.60 TC 5 183
1899 SI MM 03:00:00 TS -19.44 60.59 309 300 _________P____ -1 -19.44 60.59 TC 5 178
1899 SI MM 06:00:00 TS -19.70 60.60 300 295 _________O____ -1 -19.70 60.60 TC 5 177
1899 SI MM 09:00:00 TS -19.96 60.64 294 294 _________P____ -1 -19.96 60.64 TC 5 169
1899 SI MM 12:00:00 TS -20.20 60.70 302 302 _________O____ -1 -20.20 60.70 TC 5 168
1899 SI MM 15:00:00 TS -20.41 60.74 302 302 _________P____ -1 -20.41 60.74 TC 4 167
1899 SI MM 18:00:00 TS -20.60 60.80 314 314 _________O____ -1 -20.60 60.80 TC 3 165
1899 SI MM 21:00:00 TS -20.73 60.84 315 315 _________P____ -1 -20.73 60.84 TC 4 155
1899 SI MM 1899-01-17 00:00:00 TS -21.00 61.00 341 341 _________O____ -1 -21.00 61.00 TC 10 150
1899 SI MM 03:00:00 TS -21.59 61.38 401 401 _________P____ -1 -21.59 61.38 TC 16 147
1899 SI MM 06:00:00 TS -22.30 61.90 479 479 _________O____ -1 -22.30 61.90 TC 17 144
1899 SI MM 09:00:00 TS -22.93 62.44 554 554 _________P____ -1 -22.93 62.44 TC 16 140
1899 SI MM 12:00:00 TS -23.50 63.00 640 640 _________O____ -1 -23.50 63.00 TC 14 137
1899 SI MM 15:00:00 TS -23.99 63.50 713 713 _________P____ -1 -23.99 63.50 TC 13 135
1899 SI MM 18:00:00 TS -24.40 64.00 780 780 _________O____ -1 -24.40 64.00 TC 12 129
1899 SI MM 21:00:00 TS -24.76 64.54 846 846 _________P____ -1 -24.76 64.54 TC 12 125
1899 SI MM 1899-01-18 00:00:00 TS -25.10 65.10 915 _________O____ -1 -25.10 65.10 TC 12 123